sensor_id;sensor_type;location;lat;lon;timestamp;P1;durP1;ratioP1;P2;durP2;ratioP2
77589;SDS011;66746;51.328;12.332;2023-07-24T00:00:20;2.65;;;2.33;;
77589;SDS011;66746;51.328;12.332;2023-07-24T00:02:47;2.63;;;1.58;;
77589;SDS011;66746;51.328;12.332;2023-07-24T00:05:14;2.75;;;2.50;;
77589;SDS011;66746;51.328;12.332;2023-07-24T00:07:40;2.63;;;2.42;;
77589;SDS011;66746;51.328;12.332;2023-07-24T00:10:08;3.38;;;2.00;;
77589;SDS011;66746;51.328;12.332;2023-07-24T00:12:35;3.28;;;2.30;;
77589;SDS011;66746;51.328;12.332;2023-07-24T00:15:02;3.15;;;2.28;;
77589;SDS011;66746;51.328;12.332;2023-07-24T00:17:29;3.05;;;2.40;;
77589;SDS011;66746;51.328;12.332;2023-07-24T00:19:56;3.72;;;1.33;;
77589;SDS011;66746;51.328;12.332;2023-07-24T00:22:22;6.57;;;2.42;;
77589;SDS011;66746;51.328;12.332;2023-07-24T00:24:49;3.45;;;1.83;;
77589;SDS011;66746;51.328;12.332;2023-07-24T00:27:17;2.38;;;1.70;;
77589;SDS011;66746;51.328;12.332;2023-07-24T00:29:44;2.75;;;2.40;;
77589;SDS011;66746;51.328;12.332;2023-07-24T00:32:11;2.08;;;1.58;;
77589;SDS011;66746;51.328;12.332;2023-07-24T00:34:37;2.72;;;2.42;;
77589;SDS011;66746;51.328;12.332;2023-07-24T00:37:04;3.20;;;1.83;;
77589;SDS011;66746;51.328;12.332;2023-07-24T00:39:31;2.40;;;2.17;;
77589;SDS011;66746;51.328;12.332;2023-07-24T00:41:58;2.60;;;1.92;;
77589;SDS011;66746;51.328;12.332;2023-07-24T00:44:26;3.13;;;1.65;;
77589;SDS011;66746;51.328;12.332;2023-07-24T00:46:53;4.20;;;2.35;;
77589;SDS011;66746;51.328;12.332;2023-07-24T00:49:20;3.65;;;1.65;;
77589;SDS011;66746;51.328;12.332;2023-07-24T00:51:47;2.97;;;1.27;;
77589;SDS011;66746;51.328;12.332;2023-07-24T00:54:14;3.83;;;1.98;;
77589;SDS011;66746;51.328;12.332;2023-07-24T00:56:43;4.43;;;2.17;;
77589;SDS011;66746;51.328;12.332;2023-07-24T00:59:11;4.47;;;2.83;;
77589;SDS011;66746;51.328;12.332;2023-07-24T01:01:39;2.10;;;1.75;;
77589;SDS011;66746;51.328;12.332;2023-07-24T01:04:07;2.85;;;1.80;;
77589;SDS011;66746;51.328;12.332;2023-07-24T01:06:34;3.90;;;2.97;;
77589;SDS011;66746;51.328;12.332;2023-07-24T01:09:02;3.05;;;1.48;;
77589;SDS011;66746;51.328;12.332;2023-07-24T01:11:29;2.65;;;2.45;;
77589;SDS011;66746;51.328;12.332;2023-07-24T01:14:04;3.38;;;2.13;;
77589;SDS011;66746;51.328;12.332;2023-07-24T01:16:36;2.90;;;2.58;;
77589;SDS011;66746;51.328;12.332;2023-07-24T01:19:09;3.88;;;2.05;;
77589;SDS011;66746;51.328;12.332;2023-07-24T01:21:44;2.97;;;2.05;;
77589;SDS011;66746;51.328;12.332;2023-07-24T01:24:20;3.83;;;2.55;;
77589;SDS011;66746;51.328;12.332;2023-07-24T01:26:52;2.25;;;1.88;;
77589;SDS011;66746;51.328;12.332;2023-07-24T01:29:18;2.55;;;2.33;;
77589;SDS011;66746;51.328;12.332;2023-07-24T01:31:45;2.30;;;1.75;;
77589;SDS011;66746;51.328;12.332;2023-07-24T01:34:12;4.35;;;1.52;;
77589;SDS011;66746;51.328;12.332;2023-07-24T01:36:39;3.53;;;2.47;;
77589;SDS011;66746;51.328;12.332;2023-07-24T01:39:05;2.53;;;1.55;;
77589;SDS011;66746;51.328;12.332;2023-07-24T01:41:33;2.55;;;2.20;;
77589;SDS011;66746;51.328;12.332;2023-07-24T01:44:02;2.72;;;2.10;;
77589;SDS011;66746;51.328;12.332;2023-07-24T01:46:28;3.05;;;2.17;;
77589;SDS011;66746;51.328;12.332;2023-07-24T01:48:55;3.45;;;2.53;;
77589;SDS011;66746;51.328;12.332;2023-07-24T01:51:22;3.75;;;2.78;;
77589;SDS011;66746;51.328;12.332;2023-07-24T01:53:49;4.03;;;2.33;;
77589;SDS011;66746;51.328;12.332;2023-07-24T01:56:15;3.75;;;2.47;;
77589;SDS011;66746;51.328;12.332;2023-07-24T01:58:42;9.60;;;1.80;;
77589;SDS011;66746;51.328;12.332;2023-07-24T02:01:10;4.70;;;2.33;;
77589;SDS011;66746;51.328;12.332;2023-07-24T02:03:36;8.05;;;3.35;;
77589;SDS011;66746;51.328;12.332;2023-07-24T02:08:36;6.47;;;2.85;;
77589;SDS011;66746;51.328;12.332;2023-07-24T02:11:03;4.20;;;2.45;;
77589;SDS011;66746;51.328;12.332;2023-07-24T02:13:30;4.65;;;3.97;;
77589;SDS011;66746;51.328;12.332;2023-07-24T02:15:56;5.10;;;2.92;;
77589;SDS011;66746;51.328;12.332;2023-07-24T02:18:24;5.70;;;2.72;;
77589;SDS011;66746;51.328;12.332;2023-07-24T02:20:50;3.33;;;2.60;;
77589;SDS011;66746;51.328;12.332;2023-07-24T02:23:17;4.55;;;3.13;;
77589;SDS011;66746;51.328;12.332;2023-07-24T02:25:44;4.80;;;3.53;;
77589;SDS011;66746;51.328;12.332;2023-07-24T02:28:10;6.03;;;3.92;;
77589;SDS011;66746;51.328;12.332;2023-07-24T02:30:37;6.60;;;3.15;;
77589;SDS011;66746;51.328;12.332;2023-07-24T02:33:04;4.07;;;2.97;;
77589;SDS011;66746;51.328;12.332;2023-07-24T02:35:37;4.57;;;3.85;;
77589;SDS011;66746;51.328;12.332;2023-07-24T02:38:06;7.22;;;3.30;;
77589;SDS011;66746;51.328;12.332;2023-07-24T02:40:33;5.90;;;2.90;;
77589;SDS011;66746;51.328;12.332;2023-07-24T02:42:59;8.07;;;2.30;;
77589;SDS011;66746;51.328;12.332;2023-07-24T02:45:26;5.85;;;2.85;;
77589;SDS011;66746;51.328;12.332;2023-07-24T02:47:52;7.25;;;3.13;;
77589;SDS011;66746;51.328;12.332;2023-07-24T02:50:19;5.78;;;3.05;;
77589;SDS011;66746;51.328;12.332;2023-07-24T02:52:47;8.10;;;3.33;;
77589;SDS011;66746;51.328;12.332;2023-07-24T02:55:14;3.15;;;2.10;;
77589;SDS011;66746;51.328;12.332;2023-07-24T02:57:40;4.55;;;3.28;;
77589;SDS011;66746;51.328;12.332;2023-07-24T03:00:07;4.70;;;3.22;;
77589;SDS011;66746;51.328;12.332;2023-07-24T03:02:35;5.03;;;2.60;;
77589;SDS011;66746;51.328;12.332;2023-07-24T03:05:02;5.45;;;3.47;;
77589;SDS011;66746;51.328;12.332;2023-07-24T03:07:28;5.68;;;3.20;;
77589;SDS011;66746;51.328;12.332;2023-07-24T03:09:56;9.10;;;3.60;;
77589;SDS011;66746;51.328;12.332;2023-07-24T03:12:23;6.45;;;3.25;;
77589;SDS011;66746;51.328;12.332;2023-07-24T03:14:49;4.38;;;2.42;;
77589;SDS011;66746;51.328;12.332;2023-07-24T03:17:16;6.78;;;2.45;;
77589;SDS011;66746;51.328;12.332;2023-07-24T03:19:44;6.95;;;3.45;;
77589;SDS011;66746;51.328;12.332;2023-07-24T03:22:10;3.95;;;2.92;;
77589;SDS011;66746;51.328;12.332;2023-07-24T03:24:37;3.75;;;2.45;;
77589;SDS011;66746;51.328;12.332;2023-07-24T03:27:05;5.35;;;3.22;;
77589;SDS011;66746;51.328;12.332;2023-07-24T03:29:32;4.72;;;3.65;;
77589;SDS011;66746;51.328;12.332;2023-07-24T03:31:59;5.05;;;3.13;;
77589;SDS011;66746;51.328;12.332;2023-07-24T03:34:25;7.65;;;2.42;;
77589;SDS011;66746;51.328;12.332;2023-07-24T03:36:52;5.68;;;3.40;;
77589;SDS011;66746;51.328;12.332;2023-07-24T03:39:18;5.00;;;2.67;;
77589;SDS011;66746;51.328;12.332;2023-07-24T03:41:45;5.35;;;2.65;;
77589;SDS011;66746;51.328;12.332;2023-07-24T03:44:13;3.78;;;1.95;;
77589;SDS011;66746;51.328;12.332;2023-07-24T03:46:39;6.63;;;2.80;;
77589;SDS011;66746;51.328;12.332;2023-07-24T03:49:06;5.10;;;2.90;;
77589;SDS011;66746;51.328;12.332;2023-07-24T03:51:32;4.43;;;3.20;;
77589;SDS011;66746;51.328;12.332;2023-07-24T03:53:59;4.28;;;2.30;;
77589;SDS011;66746;51.328;12.332;2023-07-24T03:56:25;6.40;;;3.35;;
77589;SDS011;66746;51.328;12.332;2023-07-24T03:58:52;4.60;;;3.75;;
77589;SDS011;66746;51.328;12.332;2023-07-24T04:01:20;3.78;;;2.47;;
77589;SDS011;66746;51.328;12.332;2023-07-24T04:03:47;3.90;;;2.95;;
77589;SDS011;66746;51.328;12.332;2023-07-24T04:06:13;4.75;;;3.50;;
77589;SDS011;66746;51.328;12.332;2023-07-24T04:08:40;4.70;;;3.00;;
77589;SDS011;66746;51.328;12.332;2023-07-24T04:11:07;4.00;;;3.13;;
77589;SDS011;66746;51.328;12.332;2023-07-24T04:13:33;4.95;;;3.20;;
77589;SDS011;66746;51.328;12.332;2023-07-24T04:16:00;3.40;;;2.88;;
77589;SDS011;66746;51.328;12.332;2023-07-24T04:18:28;4.38;;;3.20;;
77589;SDS011;66746;51.328;12.332;2023-07-24T04:20:55;3.38;;;2.42;;
77589;SDS011;66746;51.328;12.332;2023-07-24T04:23:22;4.97;;;3.38;;
77589;SDS011;66746;51.328;12.332;2023-07-24T04:25:49;4.55;;;3.40;;
77589;SDS011;66746;51.328;12.332;2023-07-24T04:28:16;4.80;;;2.25;;
77589;SDS011;66746;51.328;12.332;2023-07-24T04:30:42;5.22;;;3.03;;
77589;SDS011;66746;51.328;12.332;2023-07-24T04:33:09;3.80;;;3.33;;
77589;SDS011;66746;51.328;12.332;2023-07-24T04:35:37;3.67;;;2.75;;
77589;SDS011;66746;51.328;12.332;2023-07-24T04:38:03;4.10;;;3.00;;
77589;SDS011;66746;51.328;12.332;2023-07-24T04:40:30;5.20;;;3.75;;
77589;SDS011;66746;51.328;12.332;2023-07-24T04:42:57;5.90;;;2.42;;
77589;SDS011;66746;51.328;12.332;2023-07-24T04:45:23;8.23;;;3.25;;
77589;SDS011;66746;51.328;12.332;2023-07-24T04:47:50;5.00;;;3.55;;
77589;SDS011;66746;51.328;12.332;2023-07-24T04:50:16;6.43;;;3.25;;
77589;SDS011;66746;51.328;12.332;2023-07-24T04:52:44;4.70;;;3.83;;
77589;SDS011;66746;51.328;12.332;2023-07-24T04:55:11;5.85;;;3.05;;
77589;SDS011;66746;51.328;12.332;2023-07-24T04:57:37;6.80;;;3.78;;
77589;SDS011;66746;51.328;12.332;2023-07-24T05:00:04;5.25;;;3.35;;
77589;SDS011;66746;51.328;12.332;2023-07-24T05:02:32;4.80;;;3.13;;
77589;SDS011;66746;51.328;12.332;2023-07-24T05:04:58;5.63;;;3.95;;
77589;SDS011;66746;51.328;12.332;2023-07-24T05:07:25;5.43;;;3.70;;
77589;SDS011;66746;51.328;12.332;2023-07-24T05:09:53;4.68;;;4.18;;
77589;SDS011;66746;51.328;12.332;2023-07-24T05:12:19;5.03;;;2.72;;
77589;SDS011;66746;51.328;12.332;2023-07-24T05:14:46;17.15;;;3.05;;
77589;SDS011;66746;51.328;12.332;2023-07-24T05:17:12;5.95;;;3.30;;
77589;SDS011;66746;51.328;12.332;2023-07-24T05:19:39;5.75;;;3.83;;
77589;SDS011;66746;51.328;12.332;2023-07-24T05:22:06;6.55;;;3.22;;
77589;SDS011;66746;51.328;12.332;2023-07-24T05:24:32;5.20;;;3.50;;
77589;SDS011;66746;51.328;12.332;2023-07-24T05:27:00;4.55;;;2.63;;
77589;SDS011;66746;51.328;12.332;2023-07-24T05:29:27;4.63;;;3.63;;
77589;SDS011;66746;51.328;12.332;2023-07-24T05:31:53;4.18;;;3.10;;
77589;SDS011;66746;51.328;12.332;2023-07-24T05:34:20;4.75;;;3.17;;
77589;SDS011;66746;51.328;12.332;2023-07-24T05:36:55;4.03;;;2.30;;
77589;SDS011;66746;51.328;12.332;2023-07-24T05:39:21;6.90;;;2.95;;
77589;SDS011;66746;51.328;12.332;2023-07-24T05:41:48;5.00;;;3.72;;
77589;SDS011;66746;51.328;12.332;2023-07-24T05:44:16;8.63;;;4.10;;
77589;SDS011;66746;51.328;12.332;2023-07-24T05:46:43;5.20;;;2.75;;
77589;SDS011;66746;51.328;12.332;2023-07-24T05:49:09;4.68;;;2.75;;
77589;SDS011;66746;51.328;12.332;2023-07-24T05:51:36;5.13;;;2.90;;
77589;SDS011;66746;51.328;12.332;2023-07-24T05:54:02;6.28;;;3.67;;
77589;SDS011;66746;51.328;12.332;2023-07-24T05:56:29;6.13;;;3.40;;
77589;SDS011;66746;51.328;12.332;2023-07-24T05:58:56;4.50;;;3.75;;
77589;SDS011;66746;51.328;12.332;2023-07-24T06:01:24;6.07;;;4.25;;
77589;SDS011;66746;51.328;12.332;2023-07-24T06:03:50;6.32;;;3.50;;
77589;SDS011;66746;51.328;12.332;2023-07-24T06:06:17;4.93;;;3.13;;
77589;SDS011;66746;51.328;12.332;2023-07-24T06:08:46;5.82;;;3.20;;
77589;SDS011;66746;51.328;12.332;2023-07-24T06:11:12;3.58;;;2.83;;
77589;SDS011;66746;51.328;12.332;2023-07-24T06:13:39;5.07;;;3.35;;
77589;SDS011;66746;51.328;12.332;2023-07-24T06:16:06;4.88;;;2.65;;
77589;SDS011;66746;51.328;12.332;2023-07-24T06:18:34;4.90;;;2.78;;
77589;SDS011;66746;51.328;12.332;2023-07-24T06:21:01;5.35;;;3.50;;
77589;SDS011;66746;51.328;12.332;2023-07-24T06:23:27;3.85;;;3.00;;
77589;SDS011;66746;51.328;12.332;2023-07-24T06:25:54;5.28;;;3.55;;
77589;SDS011;66746;51.328;12.332;2023-07-24T06:28:20;4.90;;;3.58;;
77589;SDS011;66746;51.328;12.332;2023-07-24T06:30:47;6.15;;;3.75;;
77589;SDS011;66746;51.328;12.332;2023-07-24T06:33:13;4.78;;;3.33;;
77589;SDS011;66746;51.328;12.332;2023-07-24T06:35:41;5.47;;;3.35;;
77589;SDS011;66746;51.328;12.332;2023-07-24T06:38:08;4.97;;;3.13;;
77589;SDS011;66746;51.328;12.332;2023-07-24T06:40:34;7.07;;;3.30;;
77589;SDS011;66746;51.328;12.332;2023-07-24T06:43:01;5.82;;;3.65;;
77589;SDS011;66746;51.328;12.332;2023-07-24T06:45:27;4.10;;;3.20;;
77589;SDS011;66746;51.328;12.332;2023-07-24T06:47:54;5.20;;;3.67;;
77589;SDS011;66746;51.328;12.332;2023-07-24T06:50:21;5.97;;;3.72;;
77589;SDS011;66746;51.328;12.332;2023-07-24T06:52:48;6.82;;;3.22;;
77589;SDS011;66746;51.328;12.332;2023-07-24T06:55:15;6.32;;;3.40;;
77589;SDS011;66746;51.328;12.332;2023-07-24T06:57:42;4.22;;;3.63;;
77589;SDS011;66746;51.328;12.332;2023-07-24T07:00:09;6.28;;;3.53;;
77589;SDS011;66746;51.328;12.332;2023-07-24T07:02:36;5.57;;;3.45;;
77589;SDS011;66746;51.328;12.332;2023-07-24T07:05:03;5.60;;;3.15;;
77589;SDS011;66746;51.328;12.332;2023-07-24T07:07:30;4.90;;;2.95;;
77589;SDS011;66746;51.328;12.332;2023-07-24T07:09:58;4.10;;;2.40;;
77589;SDS011;66746;51.328;12.332;2023-07-24T07:12:25;5.53;;;3.03;;
77589;SDS011;66746;51.328;12.332;2023-07-24T07:14:51;4.85;;;3.20;;
77589;SDS011;66746;51.328;12.332;2023-07-24T07:17:18;4.78;;;2.47;;
77589;SDS011;66746;51.328;12.332;2023-07-24T07:19:44;4.43;;;2.72;;
77589;SDS011;66746;51.328;12.332;2023-07-24T07:22:11;5.93;;;2.92;;
77589;SDS011;66746;51.328;12.332;2023-07-24T07:24:37;5.47;;;3.78;;
77589;SDS011;66746;51.328;12.332;2023-07-24T07:27:05;7.43;;;3.30;;
77589;SDS011;66746;51.328;12.332;2023-07-24T07:29:32;6.45;;;3.65;;
77589;SDS011;66746;51.328;12.332;2023-07-24T07:31:59;4.45;;;3.58;;
77589;SDS011;66746;51.328;12.332;2023-07-24T07:34:25;6.80;;;3.75;;
77589;SDS011;66746;51.328;12.332;2023-07-24T07:36:52;5.60;;;3.80;;
77589;SDS011;66746;51.328;12.332;2023-07-24T07:39:18;8.23;;;4.32;;
77589;SDS011;66746;51.328;12.332;2023-07-24T07:41:45;6.60;;;3.28;;
77589;SDS011;66746;51.328;12.332;2023-07-24T07:44:14;7.43;;;2.80;;
77589;SDS011;66746;51.328;12.332;2023-07-24T07:46:40;5.93;;;3.22;;
77589;SDS011;66746;51.328;12.332;2023-07-24T07:49:07;5.57;;;3.92;;
77589;SDS011;66746;51.328;12.332;2023-07-24T07:51:33;7.05;;;3.45;;
77589;SDS011;66746;51.328;12.332;2023-07-24T07:54:00;6.05;;;3.20;;
77589;SDS011;66746;51.328;12.332;2023-07-24T07:56:27;6.20;;;3.00;;
77589;SDS011;66746;51.328;12.332;2023-07-24T07:58:55;4.95;;;3.42;;
77589;SDS011;66746;51.328;12.332;2023-07-24T08:01:22;4.70;;;3.20;;
77589;SDS011;66746;51.328;12.332;2023-07-24T08:03:49;4.22;;;2.80;;
77589;SDS011;66746;51.328;12.332;2023-07-24T08:06:16;5.70;;;2.80;;
77589;SDS011;66746;51.328;12.332;2023-07-24T08:08:44;7.25;;;4.75;;
77589;SDS011;66746;51.328;12.332;2023-07-24T08:11:19;5.53;;;3.47;;
77589;SDS011;66746;51.328;12.332;2023-07-24T08:13:46;7.40;;;3.65;;
77589;SDS011;66746;51.328;12.332;2023-07-24T08:16:15;9.73;;;3.85;;
77589;SDS011;66746;51.328;12.332;2023-07-24T08:21:39;5.32;;;3.45;;
77589;SDS011;66746;51.328;12.332;2023-07-24T08:24:33;5.45;;;3.22;;
77589;SDS011;66746;51.328;12.332;2023-07-24T08:27:22;6.45;;;3.60;;
77589;SDS011;66746;51.328;12.332;2023-07-24T08:29:55;5.43;;;3.58;;
77589;SDS011;66746;51.328;12.332;2023-07-24T08:33:54;4.55;;;3.15;;
77589;SDS011;66746;51.328;12.332;2023-07-24T08:36:36;5.20;;;3.63;;
77589;SDS011;66746;51.328;12.332;2023-07-24T08:39:17;6.38;;;3.95;;
77589;SDS011;66746;51.328;12.332;2023-07-24T08:41:54;4.93;;;3.55;;
77589;SDS011;66746;51.328;12.332;2023-07-24T08:44:36;8.75;;;3.20;;
77589;SDS011;66746;51.328;12.332;2023-07-24T08:49:50;5.00;;;3.53;;
77589;SDS011;66746;51.328;12.332;2023-07-24T08:52:21;5.80;;;3.83;;
77589;SDS011;66746;51.328;12.332;2023-07-24T08:57:28;5.18;;;3.58;;
77589;SDS011;66746;51.328;12.332;2023-07-24T08:59:55;4.88;;;3.20;;
77589;SDS011;66746;51.328;12.332;2023-07-24T09:02:22;5.30;;;3.10;;
77589;SDS011;66746;51.328;12.332;2023-07-24T09:04:48;6.47;;;2.97;;
77589;SDS011;66746;51.328;12.332;2023-07-24T09:07:15;4.80;;;3.08;;
77589;SDS011;66746;51.328;12.332;2023-07-24T09:09:43;6.70;;;2.92;;
77589;SDS011;66746;51.328;12.332;2023-07-24T09:12:12;4.43;;;2.95;;
77589;SDS011;66746;51.328;12.332;2023-07-24T09:14:41;5.07;;;3.63;;
77589;SDS011;66746;51.328;12.332;2023-07-24T09:17:09;4.25;;;3.22;;
77589;SDS011;66746;51.328;12.332;2023-07-24T09:19:37;6.18;;;3.25;;
77589;SDS011;66746;51.328;12.332;2023-07-24T09:22:07;5.88;;;3.47;;
77589;SDS011;66746;51.328;12.332;2023-07-24T09:24:34;6.72;;;4.30;;
77589;SDS011;66746;51.328;12.332;2023-07-24T09:27:04;7.38;;;4.18;;
77589;SDS011;66746;51.328;12.332;2023-07-24T09:29:32;4.43;;;3.45;;
77589;SDS011;66746;51.328;12.332;2023-07-24T09:31:59;5.53;;;3.42;;
77589;SDS011;66746;51.328;12.332;2023-07-24T09:34:26;5.53;;;3.95;;
77589;SDS011;66746;51.328;12.332;2023-07-24T09:36:53;6.20;;;3.92;;
77589;SDS011;66746;51.328;12.332;2023-07-24T09:39:22;7.32;;;3.55;;
77589;SDS011;66746;51.328;12.332;2023-07-24T09:41:49;5.53;;;3.40;;
77589;SDS011;66746;51.328;12.332;2023-07-24T09:44:17;5.75;;;3.65;;
77589;SDS011;66746;51.328;12.332;2023-07-24T09:46:44;7.60;;;3.50;;
77589;SDS011;66746;51.328;12.332;2023-07-24T09:49:26;5.50;;;3.80;;
77589;SDS011;66746;51.328;12.332;2023-07-24T09:51:55;5.63;;;3.60;;
77589;SDS011;66746;51.328;12.332;2023-07-24T09:54:25;6.60;;;4.55;;
77589;SDS011;66746;51.328;12.332;2023-07-24T09:56:58;6.75;;;4.57;;
77589;SDS011;66746;51.328;12.332;2023-07-24T09:59:47;8.00;;;4.68;;
77589;SDS011;66746;51.328;12.332;2023-07-24T10:02:15;8.65;;;4.13;;
77589;SDS011;66746;51.328;12.332;2023-07-24T10:04:44;6.72;;;4.30;;
77589;SDS011;66746;51.328;12.332;2023-07-24T10:07:11;8.18;;;4.97;;
77589;SDS011;66746;51.328;12.332;2023-07-24T10:09:39;8.88;;;5.25;;
77589;SDS011;66746;51.328;12.332;2023-07-24T10:12:08;7.53;;;5.57;;
77589;SDS011;66746;51.328;12.332;2023-07-24T10:14:35;8.30;;;3.92;;
77589;SDS011;66746;51.328;12.332;2023-07-24T10:17:05;6.78;;;5.03;;
77589;SDS011;66746;51.328;12.332;2023-07-24T10:19:35;9.15;;;5.82;;
77589;SDS011;66746;51.328;12.332;2023-07-24T10:22:02;7.10;;;4.85;;
77589;SDS011;66746;51.328;12.332;2023-07-24T10:24:29;6.85;;;4.90;;
77589;SDS011;66746;51.328;12.332;2023-07-24T10:27:07;8.10;;;4.03;;
77589;SDS011;66746;51.328;12.332;2023-07-24T10:29:34;6.35;;;4.25;;
77589;SDS011;66746;51.328;12.332;2023-07-24T10:32:01;8.00;;;4.85;;
77589;SDS011;66746;51.328;12.332;2023-07-24T10:34:37;6.65;;;4.32;;
77589;SDS011;66746;51.328;12.332;2023-07-24T10:37:06;7.80;;;4.82;;
77589;SDS011;66746;51.328;12.332;2023-07-24T10:39:37;8.70;;;5.47;;
77589;SDS011;66746;51.328;12.332;2023-07-24T10:42:05;7.20;;;4.65;;
77589;SDS011;66746;51.328;12.332;2023-07-24T10:44:32;7.95;;;4.82;;
77589;SDS011;66746;51.328;12.332;2023-07-24T10:46:59;8.63;;;5.40;;
77589;SDS011;66746;51.328;12.332;2023-07-24T10:49:25;8.52;;;4.88;;
77589;SDS011;66746;51.328;12.332;2023-07-24T10:51:56;7.32;;;5.10;;
77589;SDS011;66746;51.328;12.332;2023-07-24T10:54:22;8.45;;;5.50;;
77589;SDS011;66746;51.328;12.332;2023-07-24T10:56:49;8.35;;;4.65;;
77589;SDS011;66746;51.328;12.332;2023-07-24T10:59:17;7.82;;;5.05;;
77589;SDS011;66746;51.328;12.332;2023-07-24T11:01:46;7.93;;;5.03;;
77589;SDS011;66746;51.328;12.332;2023-07-24T11:04:13;7.60;;;5.20;;
77589;SDS011;66746;51.328;12.332;2023-07-24T11:06:40;9.95;;;5.03;;
77589;SDS011;66746;51.328;12.332;2023-07-24T11:09:07;11.35;;;5.82;;
77589;SDS011;66746;51.328;12.332;2023-07-24T11:11:35;10.77;;;6.05;;
77589;SDS011;66746;51.328;12.332;2023-07-24T11:14:02;8.60;;;5.85;;
77589;SDS011;66746;51.328;12.332;2023-07-24T11:16:30;8.02;;;5.18;;
77589;SDS011;66746;51.328;12.332;2023-07-24T11:18:58;7.68;;;5.00;;
77589;SDS011;66746;51.328;12.332;2023-07-24T11:21:40;9.77;;;6.28;;
77589;SDS011;66746;51.328;12.332;2023-07-24T11:24:08;7.63;;;5.70;;
77589;SDS011;66746;51.328;12.332;2023-07-24T11:26:35;8.25;;;5.55;;
77589;SDS011;66746;51.328;12.332;2023-07-24T11:29:01;8.15;;;5.75;;
77589;SDS011;66746;51.328;12.332;2023-07-24T11:31:37;8.45;;;6.32;;
77589;SDS011;66746;51.328;12.332;2023-07-24T11:34:04;8.70;;;5.90;;
77589;SDS011;66746;51.328;12.332;2023-07-24T11:36:32;9.10;;;6.00;;
77589;SDS011;66746;51.328;12.332;2023-07-24T11:38:59;9.63;;;5.10;;
77589;SDS011;66746;51.328;12.332;2023-07-24T11:41:27;8.75;;;4.85;;
77589;SDS011;66746;51.328;12.332;2023-07-24T11:43:54;8.52;;;5.85;;
77589;SDS011;66746;51.328;12.332;2023-07-24T11:46:24;9.50;;;6.95;;
77589;SDS011;66746;51.328;12.332;2023-07-24T11:48:52;10.45;;;5.68;;
77589;SDS011;66746;51.328;12.332;2023-07-24T11:51:19;9.35;;;5.03;;
77589;SDS011;66746;51.328;12.332;2023-07-24T11:53:46;9.23;;;5.75;;
77589;SDS011;66746;51.328;12.332;2023-07-24T11:56:13;11.00;;;5.88;;
77589;SDS011;66746;51.328;12.332;2023-07-24T11:58:42;7.30;;;5.85;;
77589;SDS011;66746;51.328;12.332;2023-07-24T12:01:08;8.65;;;6.45;;
77589;SDS011;66746;51.328;12.332;2023-07-24T12:03:35;9.00;;;5.57;;
77589;SDS011;66746;51.328;12.332;2023-07-24T12:06:02;7.72;;;5.45;;
77589;SDS011;66746;51.328;12.332;2023-07-24T12:08:29;8.43;;;5.80;;
77589;SDS011;66746;51.328;12.332;2023-07-24T12:10:57;9.27;;;6.18;;
77589;SDS011;66746;51.328;12.332;2023-07-24T12:13:24;10.35;;;6.15;;
77589;SDS011;66746;51.328;12.332;2023-07-24T12:15:52;9.02;;;6.72;;
77589;SDS011;66746;51.328;12.332;2023-07-24T12:18:18;10.57;;;5.85;;
77589;SDS011;66746;51.328;12.332;2023-07-24T12:20:45;9.93;;;6.43;;
77589;SDS011;66746;51.328;12.332;2023-07-24T12:23:11;10.20;;;6.35;;
77589;SDS011;66746;51.328;12.332;2023-07-24T12:25:38;8.75;;;6.32;;
77589;SDS011;66746;51.328;12.332;2023-07-24T12:28:05;9.27;;;5.60;;
77589;SDS011;66746;51.328;12.332;2023-07-24T12:30:31;9.77;;;6.55;;
77589;SDS011;66746;51.328;12.332;2023-07-24T12:32:59;9.02;;;6.50;;
77589;SDS011;66746;51.328;12.332;2023-07-24T12:35:26;8.32;;;4.78;;
77589;SDS011;66746;51.328;12.332;2023-07-24T12:37:52;8.35;;;5.75;;
77589;SDS011;66746;51.328;12.332;2023-07-24T12:40:19;8.63;;;5.93;;
77589;SDS011;66746;51.328;12.332;2023-07-24T12:42:45;9.75;;;6.45;;
77589;SDS011;66746;51.328;12.332;2023-07-24T12:45:12;10.50;;;5.38;;
77589;SDS011;66746;51.328;12.332;2023-07-24T12:47:39;9.18;;;5.68;;
77589;SDS011;66746;51.328;12.332;2023-07-24T12:50:07;8.88;;;5.10;;
77589;SDS011;66746;51.328;12.332;2023-07-24T12:52:34;10.18;;;6.07;;
77589;SDS011;66746;51.328;12.332;2023-07-24T12:55:00;8.75;;;6.25;;
77589;SDS011;66746;51.328;12.332;2023-07-24T12:57:28;8.30;;;5.63;;
77589;SDS011;66746;51.328;12.332;2023-07-24T12:59:55;12.55;;;6.60;;
77589;SDS011;66746;51.328;12.332;2023-07-24T13:02:21;8.52;;;6.05;;
77589;SDS011;66746;51.328;12.332;2023-07-24T13:04:48;9.15;;;6.38;;
77589;SDS011;66746;51.328;12.332;2023-07-24T13:07:16;8.25;;;5.32;;
77589;SDS011;66746;51.328;12.332;2023-07-24T13:09:43;9.45;;;4.75;;
77589;SDS011;66746;51.328;12.332;2023-07-24T13:12:10;10.25;;;5.53;;
77589;SDS011;66746;51.328;12.332;2023-07-24T13:14:36;9.50;;;6.22;;
77589;SDS011;66746;51.328;12.332;2023-07-24T13:17:07;11.40;;;6.50;;
77589;SDS011;66746;51.328;12.332;2023-07-24T13:19:34;11.02;;;6.30;;
77589;SDS011;66746;51.328;12.332;2023-07-24T13:22:01;8.45;;;4.90;;
77589;SDS011;66746;51.328;12.332;2023-07-24T13:24:29;9.20;;;6.38;;
77589;SDS011;66746;51.328;12.332;2023-07-24T13:26:55;8.57;;;6.05;;
77589;SDS011;66746;51.328;12.332;2023-07-24T13:29:22;10.32;;;5.55;;
77589;SDS011;66746;51.328;12.332;2023-07-24T13:34:18;9.63;;;6.35;;
77589;SDS011;66746;51.328;12.332;2023-07-24T13:36:44;9.40;;;5.90;;
77589;SDS011;66746;51.328;12.332;2023-07-24T13:39:11;8.70;;;5.88;;
77589;SDS011;66746;51.328;12.332;2023-07-24T13:41:39;10.32;;;6.80;;
77589;SDS011;66746;51.328;12.332;2023-07-24T13:44:05;10.95;;;6.15;;
77589;SDS011;66746;51.328;12.332;2023-07-24T13:46:32;11.77;;;6.40;;
77589;SDS011;66746;51.328;12.332;2023-07-24T13:48:59;9.75;;;6.57;;
77589;SDS011;66746;51.328;12.332;2023-07-24T13:51:25;9.73;;;6.38;;
77589;SDS011;66746;51.328;12.332;2023-07-24T13:53:52;9.13;;;6.47;;
77589;SDS011;66746;51.328;12.332;2023-07-24T13:56:20;9.00;;;6.03;;
77589;SDS011;66746;51.328;12.332;2023-07-24T13:58:47;9.75;;;5.80;;
77589;SDS011;66746;51.328;12.332;2023-07-24T14:01:14;9.05;;;5.93;;
77589;SDS011;66746;51.328;12.332;2023-07-24T14:03:41;10.98;;;5.90;;
77589;SDS011;66746;51.328;12.332;2023-07-24T14:06:08;9.02;;;6.18;;
77589;SDS011;66746;51.328;12.332;2023-07-24T14:08:34;9.18;;;6.85;;
77589;SDS011;66746;51.328;12.332;2023-07-24T14:11:01;8.13;;;4.85;;
77589;SDS011;66746;51.328;12.332;2023-07-24T14:13:31;12.77;;;6.43;;
77589;SDS011;66746;51.328;12.332;2023-07-24T14:16:14;9.45;;;6.20;;
77589;SDS011;66746;51.328;12.332;2023-07-24T14:18:44;8.85;;;5.93;;
77589;SDS011;66746;51.328;12.332;2023-07-24T14:22:22;12.63;;;6.28;;
77589;SDS011;66746;51.328;12.332;2023-07-24T14:25:12;9.98;;;5.15;;
77589;SDS011;66746;51.328;12.332;2023-07-24T14:28:40;10.52;;;6.38;;
77589;SDS011;66746;51.328;12.332;2023-07-24T14:31:12;7.70;;;6.30;;
77589;SDS011;66746;51.328;12.332;2023-07-24T14:33:47;12.38;;;5.78;;
77589;SDS011;66746;51.328;12.332;2023-07-24T14:36:14;9.32;;;5.93;;
77589;SDS011;66746;51.328;12.332;2023-07-24T14:38:43;10.88;;;5.90;;
77589;SDS011;66746;51.328;12.332;2023-07-24T14:41:10;9.68;;;6.55;;
77589;SDS011;66746;51.328;12.332;2023-07-24T14:43:36;8.02;;;6.38;;
77589;SDS011;66746;51.328;12.332;2023-07-24T14:46:03;11.05;;;6.05;;
77589;SDS011;66746;51.328;12.332;2023-07-24T14:48:32;9.23;;;6.28;;
77589;SDS011;66746;51.328;12.332;2023-07-24T14:51:01;10.90;;;5.55;;
77589;SDS011;66746;51.328;12.332;2023-07-24T14:53:30;7.85;;;5.35;;